createdAt,value
2018-12-08T00:01:32.586Z,1.5
2018-12-08T00:04:32.972Z,1.5
2018-12-08T00:07:32.610Z,1.5
2018-12-08T00:10:32.349Z,1.5
2018-12-08T00:13:32.492Z,1.5
2018-12-08T00:16:32.214Z,1.5
2018-12-08T00:19:32.315Z,1.5
2018-12-08T00:22:32.355Z,1.5
2018-12-08T00:25:32.545Z,1.5
2018-12-08T00:28:32.300Z,1.5
2018-12-08T00:31:32.406Z,1.5
2018-12-08T00:34:32.408Z,1.5
2018-12-08T00:37:32.389Z,1.5
2018-12-08T00:40:32.434Z,1.5
2018-12-08T00:43:32.300Z,1.5
2018-12-08T00:46:32.387Z,1.5
2018-12-08T00:49:32.358Z,1.5
2018-12-08T00:52:32.671Z,1.5
2018-12-08T00:55:32.563Z,1.5
2018-12-08T00:58:32.525Z,1.5
2018-12-08T01:01:32.536Z,1.5
2018-12-08T01:04:32.085Z,1.5
2018-12-08T01:07:32.265Z,1.5
2018-12-08T01:10:32.798Z,1.5
2018-12-08T01:13:32.566Z,1.5
2018-12-08T01:16:32.673Z,1.5
2018-12-08T01:19:32.390Z,1.5
2018-12-08T01:22:32.336Z,1.5
2018-12-08T01:25:32.810Z,1.5
2018-12-08T01:28:32.639Z,1.5
2018-12-08T01:31:32.298Z,1.5
2018-12-08T01:34:32.382Z,1.5
2018-12-08T01:37:32.336Z,1.5
2018-12-08T01:40:32.575Z,1.5
2018-12-08T01:43:32.454Z,1.5
2018-12-08T01:46:32.221Z,1.5
2018-12-08T01:49:32.554Z,1.5
2018-12-08T01:52:32.324Z,1.5
2018-12-08T01:55:32.469Z,1.5
2018-12-08T01:58:32.493Z,1.5
2018-12-08T02:01:32.188Z,1.5
2018-12-08T02:04:32.415Z,1.5
2018-12-08T02:07:32.154Z,1.5
2018-12-08T02:10:32.432Z,1.5
2018-12-08T02:13:32.312Z,1.5
2018-12-08T02:16:32.129Z,1.5
2018-12-08T02:19:32.689Z,1.5
2018-12-08T02:22:32.563Z,1.5
2018-12-08T02:25:32.379Z,1.5
2018-12-08T02:28:32.278Z,1.5
2018-12-08T02:31:32.260Z,1.5
2018-12-08T02:34:32.303Z,1.5
2018-12-08T02:37:32.134Z,1.5
2018-12-08T02:40:32.611Z,1.5
2018-12-08T02:43:32.292Z,1.5
2018-12-08T02:46:33.335Z,1.5
2018-12-08T02:49:32.390Z,1.5
2018-12-08T02:52:32.518Z,1.5
2018-12-08T02:55:32.524Z,1.5
2018-12-08T02:58:32.271Z,1.5
2018-12-08T03:01:32.279Z,1.5
2018-12-08T03:04:32.650Z,1.5
2018-12-08T03:07:32.410Z,1.5
2018-12-08T03:10:32.119Z,1.5
2018-12-08T03:13:32.472Z,1.5
2018-12-08T03:16:32.113Z,1.5
2018-12-08T03:19:32.426Z,1.5
2018-12-08T03:22:32.208Z,1.5
2018-12-08T03:25:32.093Z,1.5
2018-12-08T03:28:32.132Z,1.5
2018-12-08T03:31:32.882Z,1.5
2018-12-08T03:34:32.593Z,1.5
2018-12-08T03:37:32.098Z,1.5
2018-12-08T03:40:32.320Z,1.5
2018-12-08T03:43:32.284Z,1.5
2018-12-08T03:46:32.075Z,1.5
2018-12-08T03:49:32.290Z,1.5
2018-12-08T03:52:32.423Z,1.5
2018-12-08T03:55:32.247Z,1.5
2018-12-08T03:58:32.259Z,1.5
2018-12-08T04:01:32.596Z,1.5
2018-12-08T04:04:32.372Z,1.5
2018-12-08T04:07:32.202Z,1.5
2018-12-08T04:10:32.429Z,1.5
2018-12-08T04:13:32.339Z,1.5
2018-12-08T04:16:32.913Z,1.5
2018-12-08T04:19:31.994Z,1.5
2018-12-08T04:22:32.235Z,1.5
2018-12-08T04:25:32.407Z,1.5
2018-12-08T04:28:32.508Z,1.5
2018-12-08T04:31:32.164Z,1.5
2018-12-08T04:34:33.027Z,1.5
2018-12-08T04:37:32.005Z,1.5
2018-12-08T04:40:32.218Z,1.5
2018-12-08T04:43:32.329Z,1.5
2018-12-08T04:46:32.112Z,1.5
2018-12-08T04:49:32.157Z,1.5
2018-12-08T04:52:32.383Z,1.5
2018-12-08T04:55:32.266Z,1.5
2018-12-08T04:58:32.143Z,1.5
2018-12-08T05:01:32.678Z,1.5
2018-12-08T05:04:32.178Z,1.5
2018-12-08T05:07:32.118Z,1.5
2018-12-08T05:10:32.158Z,1.5
2018-12-08T05:13:32.251Z,1.5
2018-12-08T05:16:32.370Z,1.5
2018-12-08T05:19:32.192Z,1.5
2018-12-08T05:22:32.310Z,1.5
2018-12-08T05:25:32.108Z,1.5
2018-12-08T05:28:32.131Z,1.5
2018-12-08T05:31:32.248Z,1.5
2018-12-08T05:34:32.286Z,1.5
2018-12-08T05:37:32.451Z,1.5
2018-12-08T05:40:32.019Z,1.5
2018-12-08T05:43:32.248Z,1.5
2018-12-08T05:46:32.191Z,1.5
2018-12-08T05:49:32.636Z,1.5
2018-12-08T05:52:32.201Z,1.5
2018-12-08T05:55:31.879Z,1.5
2018-12-08T05:58:32.054Z,1.5
2018-12-08T06:01:32.351Z,1.5
2018-12-08T06:04:32.325Z,1.5
2018-12-08T06:07:32.170Z,1.5
2018-12-08T06:10:32.129Z,1.5
2018-12-08T06:13:32.203Z,1.5
2018-12-08T06:16:32.000Z,1.5
2018-12-08T06:19:32.342Z,1.5
2018-12-08T06:22:32.386Z,1.5
2018-12-08T06:25:32.210Z,1.5
2018-12-08T06:28:32.468Z,1.5
2018-12-08T06:31:32.158Z,1.5
2018-12-08T06:34:32.750Z,1.5
2018-12-08T06:37:32.277Z,1.5
2018-12-08T06:40:32.510Z,1.5
2018-12-08T06:43:32.208Z,1.5
2018-12-08T06:46:32.608Z,1.5
2018-12-08T06:49:32.382Z,1.5
2018-12-08T06:52:32.211Z,1.5
2018-12-08T06:55:32.122Z,1.5
2018-12-08T06:58:32.126Z,1.5
2018-12-08T07:01:32.273Z,1.5
2018-12-08T07:04:32.008Z,1.5
2018-12-08T07:07:32.168Z,1.5
2018-12-08T07:10:32.228Z,1.5
2018-12-08T07:13:32.246Z,1.5
2018-12-08T07:16:32.045Z,1.5
2018-12-08T07:19:32.136Z,1.5
2018-12-08T07:22:31.933Z,1.5
2018-12-08T07:25:32.124Z,1.5
2018-12-08T07:28:32.339Z,1.5
2018-12-08T07:31:33.086Z,1.5
2018-12-08T07:34:32.602Z,1.5
2018-12-08T07:37:32.280Z,1.5
2018-12-08T07:40:32.158Z,1.5
2018-12-08T07:43:32.058Z,1.5
2018-12-08T07:46:32.372Z,1.5
2018-12-08T07:49:32.040Z,1.5
2018-12-08T07:52:32.196Z,1.5
2018-12-08T07:55:32.539Z,1.5
2018-12-08T07:58:31.939Z,1.5
2018-12-08T08:01:32.339Z,1.5
2018-12-08T08:04:32.132Z,1.5
2018-12-08T08:07:32.140Z,1.5
2018-12-08T08:10:32.155Z,1.5
2018-12-08T08:13:32.102Z,1.5
2018-12-08T08:16:32.291Z,1.5
2018-12-08T08:19:32.309Z,1.5
2018-12-08T08:22:32.165Z,1.5
2018-12-08T08:25:33.294Z,1.5
2018-12-08T08:28:32.125Z,1.5
2018-12-08T08:31:33.035Z,1.5
2018-12-08T08:34:32.115Z,1.5
2018-12-08T08:37:32.033Z,1.5
2018-12-08T08:40:32.183Z,1.5
2018-12-08T08:43:31.985Z,1.5
2018-12-08T08:46:32.127Z,1.5
2018-12-08T08:49:32.180Z,1.5
2018-12-08T08:52:32.068Z,1.5
2018-12-08T08:55:32.341Z,1.5
2018-12-08T08:58:32.440Z,1.5
2018-12-08T09:01:31.996Z,1.5
2018-12-08T09:04:31.971Z,1.5
2018-12-08T09:07:32.193Z,1.5
2018-12-08T09:10:32.173Z,1.5
2018-12-08T09:13:32.036Z,1.5
2018-12-08T09:16:32.436Z,1.5
2018-12-08T09:19:31.927Z,1.5
2018-12-08T09:22:32.115Z,1.5
2018-12-08T09:25:32.055Z,1.5
2018-12-08T09:28:32.278Z,1.5
2018-12-08T09:31:32.176Z,1.5
2018-12-08T09:34:32.306Z,1.5
2018-12-08T09:37:31.977Z,1.5
2018-12-08T09:40:32.073Z,1.5
2018-12-08T09:43:31.995Z,1.5
2018-12-08T09:46:32.041Z,1.5
2018-12-08T09:49:32.115Z,1.5
2018-12-08T09:52:32.342Z,1.5
2018-12-08T09:55:32.012Z,1.5
2018-12-08T09:58:32.187Z,1.5
2018-12-08T10:01:32.307Z,1.4
2018-12-08T10:04:31.763Z,1.4
2018-12-08T10:07:33.150Z,1.4
2018-12-08T10:10:32.078Z,1.4
2018-12-08T10:13:32.505Z,1.4
2018-12-08T10:16:32.119Z,1.4
2018-12-08T10:19:32.160Z,1.4
2018-12-08T10:22:31.850Z,1.4
2018-12-08T10:25:32.177Z,1.4
2018-12-08T10:28:32.026Z,1.4
2018-12-08T10:31:31.887Z,1.4
2018-12-08T10:34:31.965Z,1.4
2018-12-08T10:37:31.980Z,1.4
2018-12-08T10:40:31.846Z,1.4
2018-12-08T10:43:32.340Z,1.4
2018-12-08T10:46:31.906Z,1.4
2018-12-08T10:49:32.097Z,1.4
2018-12-08T10:52:32.180Z,1.4
2018-12-08T10:55:32.292Z,1.4
2018-12-08T10:58:32.747Z,1.4
2018-12-08T11:01:32.489Z,1.5
2018-12-08T11:04:32.338Z,1.5
2018-12-08T11:07:32.378Z,1.5
2018-12-08T11:10:32.207Z,1.5
2018-12-08T11:13:32.364Z,1.5
2018-12-08T11:16:31.895Z,1.5
2018-12-08T11:19:32.314Z,1.5
2018-12-08T11:22:32.043Z,1.5
2018-12-08T11:25:32.768Z,1.5
2018-12-08T11:28:32.091Z,1.5
2018-12-08T11:31:31.919Z,1.5
2018-12-08T11:34:32.007Z,1.5
2018-12-08T11:37:32.451Z,1.5
2018-12-08T11:40:32.132Z,1.5
2018-12-08T11:43:31.928Z,1.5
2018-12-08T11:46:32.454Z,1.5
2018-12-08T11:49:32.123Z,1.5
2018-12-08T11:52:32.081Z,1.5
2018-12-08T11:55:31.862Z,1.5
2018-12-08T11:58:31.885Z,1.5
2018-12-08T12:01:31.845Z,1.6
2018-12-08T12:04:32.015Z,1.6
2018-12-08T12:07:31.913Z,1.6
2018-12-08T12:10:31.855Z,1.6
2018-12-08T12:13:32.066Z,1.6
2018-12-08T12:16:32.099Z,1.6
2018-12-08T12:19:32.142Z,1.6
2018-12-08T12:22:31.935Z,1.6
2018-12-08T12:25:32.089Z,1.6
2018-12-08T12:28:31.727Z,1.6
2018-12-08T12:31:32.371Z,1.6
2018-12-08T12:34:32.903Z,1.6
2018-12-08T12:37:32.019Z,1.6
2018-12-08T12:40:32.328Z,1.6
2018-12-08T12:43:32.099Z,1.6
2018-12-08T12:46:32.265Z,1.6
2018-12-08T12:49:31.986Z,1.6
2018-12-08T12:52:32.300Z,1.6
2018-12-08T12:55:32.758Z,1.6
2018-12-08T12:58:32.141Z,1.6
2018-12-08T13:01:32.159Z,1.5
2018-12-08T13:04:31.895Z,1.5
2018-12-08T13:07:31.925Z,1.5
2018-12-08T13:10:32.940Z,1.5
2018-12-08T13:13:32.708Z,1.5
2018-12-08T13:16:32.247Z,1.5
2018-12-08T13:19:32.435Z,1.5
2018-12-08T13:22:32.172Z,1.5
2018-12-08T13:25:31.954Z,1.5
2018-12-08T13:28:32.204Z,1.5
2018-12-08T13:31:31.902Z,1.5
2018-12-08T13:34:31.938Z,1.5
2018-12-08T13:37:31.959Z,1.5
2018-12-08T13:40:31.883Z,1.5
2018-12-08T13:43:31.861Z,1.5
2018-12-08T13:46:32.180Z,1.5
2018-12-08T13:49:31.798Z,1.5
2018-12-08T13:52:32.084Z,1.5
2018-12-08T13:55:31.837Z,1.5
2018-12-08T13:58:32.388Z,1.5
2018-12-08T14:01:31.999Z,1.7
2018-12-08T14:04:32.225Z,1.7
2018-12-08T14:07:31.893Z,1.7
2018-12-08T14:10:33.115Z,1.7
2018-12-08T14:13:31.981Z,1.7
2018-12-08T14:16:33.730Z,1.7
2018-12-08T14:19:31.961Z,1.7
2018-12-08T14:22:32.249Z,1.7
2018-12-08T14:25:31.785Z,1.7
2018-12-08T14:28:32.074Z,1.7
2018-12-08T14:31:31.927Z,1.7
2018-12-08T14:34:31.833Z,1.7
2018-12-08T14:37:31.981Z,1.7
2018-12-08T14:40:32.173Z,1.7
2018-12-08T14:43:32.209Z,1.7
2018-12-08T14:46:31.811Z,1.7
2018-12-08T14:49:31.840Z,1.7
2018-12-08T14:52:32.007Z,1.7
2018-12-08T14:55:32.134Z,1.7
2018-12-08T14:58:31.935Z,1.7
2018-12-08T15:01:31.895Z,1.8
2018-12-08T15:04:32.330Z,1.8
2018-12-08T15:07:31.863Z,1.8
2018-12-08T15:10:31.843Z,1.8
2018-12-08T15:13:31.900Z,1.8
2018-12-08T15:16:31.806Z,1.8
2018-12-08T15:19:31.850Z,1.8
2018-12-08T15:22:31.981Z,1.8
2018-12-08T15:25:32.860Z,1.8
2018-12-08T15:28:31.808Z,1.8
2018-12-08T15:31:31.908Z,1.8
2018-12-08T15:34:32.113Z,1.8
2018-12-08T15:37:32.053Z,1.8
2018-12-08T15:40:31.841Z,1.8
2018-12-08T15:43:32.217Z,1.8
2018-12-08T15:46:31.717Z,1.8
2018-12-08T15:49:32.233Z,1.8
2018-12-08T15:52:31.974Z,1.8
2018-12-08T15:55:31.903Z,1.8
2018-12-08T15:58:31.919Z,1.8
2018-12-08T16:01:32.122Z,1.8
2018-12-08T16:04:32.064Z,1.8
2018-12-08T16:07:32.063Z,1.8
2018-12-08T16:10:31.961Z,1.8
2018-12-08T16:13:31.943Z,1.8
2018-12-08T16:16:32.014Z,1.8
2018-12-08T16:19:31.985Z,1.8
2018-12-08T16:22:31.851Z,1.8
2018-12-08T16:25:31.985Z,1.8
2018-12-08T16:28:31.972Z,1.8
2018-12-08T16:31:31.883Z,1.8
2018-12-08T16:34:32.130Z,1.8
2018-12-08T16:37:32.209Z,1.8
2018-12-08T16:40:31.813Z,1.8
2018-12-08T16:43:31.932Z,1.8
2018-12-08T16:46:32.031Z,1.8
2018-12-08T16:49:32.016Z,1.8
2018-12-08T16:52:32.142Z,1.8
2018-12-08T16:55:31.925Z,1.8
2018-12-08T16:58:32.200Z,1.8
2018-12-08T17:01:31.909Z,1.9
2018-12-08T17:04:31.977Z,1.9
2018-12-08T17:07:32.219Z,1.9
2018-12-08T17:10:32.238Z,1.9
2018-12-08T17:13:31.786Z,1.9
2018-12-08T17:16:32.258Z,1.9
2018-12-08T17:19:31.932Z,1.9
2018-12-08T17:22:31.811Z,1.9
2018-12-08T17:25:32.340Z,1.9
2018-12-08T17:28:32.022Z,1.9
2018-12-08T17:31:32.075Z,1.9
2018-12-08T17:34:32.200Z,1.9
2018-12-08T17:37:31.882Z,1.9
2018-12-08T17:40:31.853Z,1.9
2018-12-08T17:43:31.912Z,1.9
2018-12-08T17:46:31.952Z,1.9
2018-12-08T17:49:32.098Z,1.9
2018-12-08T17:52:31.772Z,1.9
2018-12-08T17:55:31.898Z,1.9
2018-12-08T17:58:31.862Z,1.9
2018-12-08T18:01:32.137Z,2
2018-12-08T18:04:31.862Z,2
2018-12-08T18:07:31.971Z,2
2018-12-08T18:10:32.014Z,2
2018-12-08T18:13:32.662Z,2
2018-12-08T18:16:32.063Z,2
2018-12-08T18:19:31.876Z,2
2018-12-08T18:22:34.786Z,2
2018-12-08T18:25:31.835Z,2
2018-12-08T18:28:31.889Z,2
2018-12-08T18:31:32.031Z,2
2018-12-08T18:34:31.869Z,2
2018-12-08T18:37:32.141Z,2
2018-12-08T18:40:32.832Z,2
2018-12-08T18:43:32.342Z,2
2018-12-08T18:46:31.927Z,2
2018-12-08T18:49:32.036Z,2
2018-12-08T18:52:32.147Z,2
2018-12-08T18:55:32.091Z,2
2018-12-08T18:58:31.853Z,2
2018-12-08T19:01:32.037Z,2.1
2018-12-08T19:04:32.036Z,2.1
2018-12-08T19:07:32.065Z,2.1
2018-12-08T19:10:32.060Z,2.1
2018-12-08T19:13:31.959Z,2.1
2018-12-08T19:16:32.116Z,2.1
2018-12-08T19:19:32.143Z,2.1
2018-12-08T19:22:32.502Z,2.1
2018-12-08T19:25:31.812Z,2.1
2018-12-08T19:28:31.897Z,2.1
2018-12-08T19:31:32.309Z,2.1
2018-12-08T19:34:31.981Z,2.1
2018-12-08T19:37:32.064Z,2.1
2018-12-08T19:40:32.045Z,2.1
2018-12-08T19:43:32.245Z,2.1
2018-12-08T19:46:31.854Z,2.1
2018-12-08T19:49:31.797Z,2.1
2018-12-08T19:52:31.977Z,2.1
2018-12-08T19:55:31.997Z,2.1
2018-12-08T19:58:31.880Z,2.1
2018-12-08T20:01:31.845Z,2.1
2018-12-08T20:04:31.715Z,2.1
2018-12-08T20:07:31.800Z,2.1
2018-12-08T20:10:31.826Z,2.1
2018-12-08T20:13:31.940Z,2.1
2018-12-08T20:16:32.102Z,2.1
2018-12-08T20:19:31.865Z,2.1
2018-12-08T20:22:32.329Z,2.1
2018-12-08T20:25:32.161Z,2.1
2018-12-08T20:28:31.900Z,2.1
2018-12-08T20:31:32.231Z,2.1
2018-12-08T20:34:31.965Z,2.1
2018-12-08T20:37:31.798Z,2.1
2018-12-08T20:40:32.008Z,2.1
2018-12-08T20:43:32.034Z,2.1
2018-12-08T20:46:32.229Z,2.1
2018-12-08T20:49:31.887Z,2.1
2018-12-08T20:52:31.947Z,2.1
2018-12-08T20:55:31.676Z,2.1
2018-12-08T20:58:32.683Z,2.1
2018-12-08T21:01:32.018Z,2.1
2018-12-08T21:04:31.805Z,2.1
2018-12-08T21:07:32.092Z,2.1
2018-12-08T21:10:31.864Z,2.1
2018-12-08T21:13:32.057Z,2.1
2018-12-08T21:16:31.684Z,2.1
2018-12-08T21:19:31.786Z,2.1
2018-12-08T21:22:31.828Z,2.1
2018-12-08T21:25:32.624Z,2.1
2018-12-08T21:28:31.797Z,2.1
2018-12-08T21:31:31.842Z,2.1
2018-12-08T21:34:31.897Z,2.1
2018-12-08T21:37:32.177Z,2.1
2018-12-08T21:40:31.913Z,2.1
2018-12-08T21:43:31.693Z,2.1
2018-12-08T21:46:31.804Z,2.1
2018-12-08T21:49:31.842Z,2.1
2018-12-08T21:52:31.745Z,2.1
2018-12-08T21:55:31.992Z,2.1
2018-12-08T21:58:32.155Z,2.1
2018-12-08T22:01:32.106Z,2.1
2018-12-08T22:04:31.746Z,2.1
2018-12-08T22:07:32.137Z,2.1
2018-12-08T22:10:31.949Z,2.1
2018-12-08T22:13:32.055Z,2.1
2018-12-08T22:16:31.711Z,2.1
2018-12-08T22:19:32.046Z,2.1
2018-12-08T22:22:31.525Z,2.1
2018-12-08T22:25:31.742Z,2.1
2018-12-08T22:28:31.944Z,2.1
2018-12-08T22:31:32.092Z,2.1
2018-12-08T22:34:32.038Z,2.1
2018-12-08T22:37:31.810Z,2.1
2018-12-08T22:40:32.360Z,2.1
2018-12-08T22:43:31.850Z,2.1
2018-12-08T22:46:31.816Z,2.1
2018-12-08T22:49:32.180Z,2.1
2018-12-08T22:52:31.804Z,2.1
2018-12-08T22:55:31.633Z,2.1
2018-12-08T22:58:31.838Z,2.1
2018-12-08T23:01:32.204Z,2
2018-12-08T23:04:31.655Z,2
2018-12-08T23:07:31.854Z,2
2018-12-08T23:10:32.018Z,2
2018-12-08T23:13:31.606Z,2
2018-12-08T23:16:31.645Z,2
2018-12-08T23:19:31.844Z,2
2018-12-08T23:22:31.718Z,2
2018-12-08T23:25:32.060Z,2
2018-12-08T23:28:32.181Z,2
2018-12-08T23:31:31.601Z,2
2018-12-08T23:34:31.658Z,2
2018-12-08T23:37:32.152Z,2
2018-12-08T23:40:31.731Z,2
2018-12-08T23:43:32.130Z,2
2018-12-08T23:46:31.719Z,2
2018-12-08T23:49:31.838Z,2
2018-12-08T23:52:31.735Z,2
2018-12-08T23:55:31.663Z,2
2018-12-08T23:58:32.013Z,2
